Aplicació Alertes

Dades de l'estació automàtica Aldover

?
?
Resum diari 23:00 TU
Dades diàries de l'estació meteorològica
Temperatura mitjana 18.7 °C
Temperatura màxima 22.1 °C 13:37 TU
Temperatura mínima 17.0 °C 23:19 TU
Humitat relativa mitjana 44%
Precipitació acumulada 0.0 mm
Ratxa màxima del vent (2 m) 65.9 km/h - 274º 7:41 TU
Irradiació solar global 8.3 MJ/m2

El tram horari està expressat en Temps Universal (TU). Cal sumar una hora en horari d'hivern i dues en horari d'estiu per passar a l'hora oficial.

Aldover

Metadades estació meteorol´gica
Municipi Aldover
Comarca Baix Ebre
Altitud 52 m
Data alta 31.12.1994
Estat actual Operativa
Dades de període
Període
TU
TM
°C
TX
°C
TN
°C
HRM
%
PPT
mm
VVM (2 m)
km/h
DVM (2 m)
graus
VVX (2 m)
km/h
RS
W/m2
00:00 - 00:30 17.8 17.9 17.7 42 0.0 15.8 298 45.4 0
00:30 - 01:00 17.7 17.7 17.6 43 0.0 15.5 300 41.8 0
01:00 - 01:30 17.6 17.6 17.5 43 0.0 14.0 307 36.7 0
01:30 - 02:00 17.5 17.7 17.4 43 0.0 13.0 304 36.7 0
02:00 - 02:30 17.7 17.9 17.6 43 0.0 16.2 305 47.5 0
02:30 - 03:00 17.8 17.9 17.7 44 0.0 16.9 307 44.6 0
03:00 - 03:30 17.7 17.9 17.6 44 0.0 16.2 307 51.8 0
03:30 - 04:00 17.6 17.8 17.4 45 0.0 15.8 305 51.8 0
04:00 - 04:30 17.5 17.6 17.4 46 0.0 17.3 309 56.5 0
04:30 - 05:00 17.5 17.6 17.5 47 0.0 21.2 300 54.0 0
05:00 - 05:30 17.6 17.7 17.6 46 0.0 25.2 295 62.3 0
05:30 - 06:00 17.7 17.8 17.6 47 0.0 22.7 297 60.8 0
06:00 - 06:30 17.8 18.0 17.6 46 0.0 21.6 300 54.4 0
06:30 - 07:00 18.0 18.2 17.9 45 0.0 18.7 300 56.9 0
07:00 - 07:30 18.0 18.2 17.9 45 0.0 19.8 301 54.4 2
07:30 - 08:00 18.0 18.2 17.9 45 0.0 21.2 304 65.9 11
08:00 - 08:30 18.3 18.6 18.0 44 0.0 20.5 308 56.2 44
08:30 - 09:00 18.3 18.5 18.1 44 0.0 21.6 307 49.3 98
09:00 - 09:30 18.5 18.8 18.3 43 0.0 19.8 310 54.7 146
09:30 - 10:00 18.5 18.6 18.4 44 0.0 14.4 316 54.7 171
10:00 - 10:30 18.5 18.6 18.4 44 0.0 14.8 326 45.7 199
10:30 - 11:00 18.4 18.7 18.3 45 0.0 14.0 345 41.4 222
11:00 - 11:30 19.1 19.6 18.6 43 0.0 15.8 341 43.9 320
11:30 - 12:00 20.3 20.5 19.7 40 0.0 13.7 342 52.9 515
12:00 - 12:30 20.3 20.6 20.1 41 0.0 10.4 332 29.9 362
12:30 - 13:00 21.0 21.5 20.6 39 0.0 8.6 323 27.7 479
13:00 - 13:30 21.7 22.0 21.4 37 0.0 7.9 311 26.6 487
13:30 - 14:00 21.8 22.1 21.5 37 0.0 9.0 323 24.8 450
14:00 - 14:30 21.6 22.0 21.3 38 0.0 10.8 331 24.5 391
14:30 - 15:00 21.1 21.5 20.8 40 0.0 11.2 340 35.6 306
15:00 - 15:30 21.1 21.2 20.9 40 0.0 9.0 319 27.0 258
15:30 - 16:00 20.9 21.1 20.7 40 0.0 7.9 311 23.4 118
16:00 - 16:30 20.2 20.7 19.7 43 0.0 10.1 319 28.8 33
16:30 - 17:00 19.3 19.6 19.0 46 0.0 9.7 302 31.0 13
17:00 - 17:30 18.8 19.0 18.6 47 0.0 9.4 311 40.7 2
17:30 - 18:00 18.5 18.7 18.4 47 0.0 11.2 307 40.3 0
18:00 - 18:30 18.4 18.6 18.3 47 0.0 11.2 316 37.1 0
18:30 - 19:00 18.2 18.4 18.1 48 0.0 9.7 332 29.5 0
19:00 - 19:30 18.2 18.3 18.1 48 0.0 13.0 308 51.5 0
19:30 - 20:00 18.2 18.3 18.1 47 0.0 11.9 318 36.4 0
20:00 - 20:30 18.1 18.3 18.0 47 0.0 9.0 304 28.1 0
20:30 - 21:00 18.1 18.3 17.9 46 0.0 11.5 290 38.2 0
21:00 - 21:30 18.1 18.3 17.9 45 0.0 13.7 285 37.1 0
21:30 - 22:00 18.0 18.2 17.6 45 0.0 8.3 290 31.7 0
22:00 - 22:30 17.9 18.1 17.6 44 0.0 6.8 287 21.6 0
22:30 - 23:00 18.0 18.2 17.8 45 0.0 10.4 297 26.3 0
23:00 - 23:30 17.4 17.7 17.0 48 0.0 5.0 335 32.4 0

Les dades en taronja només han passat un control de qualitat automàtic. Resta pendent la seva validació definitiva.